createdAt,value
2019-01-17T00:01:01.949Z,0
2019-01-17T00:02:09.998Z,0
2019-01-17T00:03:18.054Z,0
2019-01-17T00:04:26.109Z,0
2019-01-17T00:05:34.148Z,0
2019-01-17T00:06:42.209Z,0
2019-01-17T00:07:50.263Z,0
2019-01-17T00:08:58.316Z,0
2019-01-17T00:10:06.370Z,0
2019-01-17T00:11:14.418Z,0
2019-01-17T00:12:22.469Z,0
2019-01-17T00:13:30.501Z,0
2019-01-17T00:14:38.567Z,0
2019-01-17T00:15:46.623Z,0
2019-01-17T00:16:54.667Z,0
2019-01-17T00:18:02.736Z,0
2019-01-17T00:19:10.766Z,0
2019-01-17T00:20:18.836Z,0
2019-01-17T00:21:26.874Z,0
2019-01-17T00:22:34.934Z,0
2019-01-17T00:23:42.989Z,0
2019-01-17T00:24:51.022Z,0
2019-01-17T00:25:59.090Z,0
2019-01-17T00:27:07.151Z,0
2019-01-17T00:28:15.199Z,0
2019-01-17T00:29:23.239Z,0
2019-01-17T00:30:31.272Z,0
2019-01-17T00:31:39.349Z,0
2019-01-17T00:32:47.403Z,0
2019-01-17T00:33:55.448Z,0
2019-01-17T00:35:03.495Z,0
2019-01-17T00:36:11.561Z,0
2019-01-17T00:37:19.612Z,0
2019-01-17T00:38:27.673Z,0
2019-01-17T00:39:35.713Z,0
2019-01-17T00:40:43.761Z,0
2019-01-17T00:41:51.824Z,0
2019-01-17T00:42:59.876Z,0
2019-01-17T00:44:07.937Z,0
2019-01-17T00:45:15.983Z,0
2019-01-17T00:46:24.028Z,0
2019-01-17T00:47:32.079Z,0
2019-01-17T00:48:40.129Z,0
2019-01-17T00:49:48.191Z,0
2019-01-17T00:50:56.234Z,0
2019-01-17T00:52:04.284Z,0
2019-01-17T00:53:12.350Z,0
2019-01-17T00:54:20.664Z,0
2019-01-17T00:55:28.837Z,0
2019-01-17T00:56:36.957Z,0
2019-01-17T00:57:44.853Z,0
2019-01-17T00:58:52.602Z,0
2019-01-17T01:00:00.638Z,0
2019-01-17T01:01:08.874Z,0
2019-01-17T01:02:16.759Z,0
2019-01-17T01:03:24.932Z,0
2019-01-17T01:04:32.860Z,0
2019-01-17T01:05:41.571Z,0
2019-01-17T01:06:48.980Z,0
2019-01-17T01:07:59.028Z,0
2019-01-17T01:09:05.064Z,0
2019-01-17T01:10:13.152Z,0
2019-01-17T01:11:21.167Z,0
2019-01-17T01:12:29.224Z,0
2019-01-17T01:13:37.281Z,0
2019-01-17T01:14:45.327Z,0
2019-01-17T01:15:53.385Z,0
2019-01-17T01:17:01.433Z,0
2019-01-17T01:18:09.478Z,0
2019-01-17T01:19:17.589Z,0
2019-01-17T01:20:25.581Z,0
2019-01-17T01:21:33.639Z,0
2019-01-17T01:22:41.689Z,0
2019-01-17T01:23:49.743Z,0
2019-01-17T01:24:57.801Z,0
2019-01-17T01:26:05.850Z,0
2019-01-17T01:27:13.910Z,0
2019-01-17T01:28:21.971Z,0
2019-01-17T01:29:30.008Z,0
2019-01-17T01:30:38.071Z,0
2019-01-17T01:31:46.115Z,0
2019-01-17T01:32:54.169Z,0
2019-01-17T01:34:02.205Z,0
2019-01-17T01:35:10.267Z,0
2019-01-17T01:36:18.313Z,0
2019-01-17T01:37:26.464Z,0
2019-01-17T01:38:34.428Z,0
2019-01-17T01:39:42.465Z,0
2019-01-17T01:40:50.515Z,0
2019-01-17T01:41:58.575Z,0
2019-01-17T01:43:06.651Z,0
2019-01-17T01:44:14.682Z,0
2019-01-17T01:45:22.741Z,0
2019-01-17T01:46:30.764Z,0
2019-01-17T01:47:38.842Z,0
2019-01-17T01:48:46.905Z,0
2019-01-17T01:49:54.943Z,0
2019-01-17T01:51:02.987Z,0
2019-01-17T01:52:11.022Z,0
2019-01-17T01:53:19.101Z,0
2019-01-17T01:54:27.160Z,0
2019-01-17T01:55:35.195Z,0
2019-01-17T01:56:43.250Z,0
2019-01-17T01:57:51.285Z,0
2019-01-17T01:58:59.368Z,0
2019-01-17T02:00:07.418Z,0
2019-01-17T02:01:15.457Z,0
2019-01-17T02:02:23.520Z,0
2019-01-17T02:03:31.582Z,0
2019-01-17T02:04:39.628Z,0
2019-01-17T02:05:47.675Z,0
2019-01-17T02:06:55.714Z,0
2019-01-17T02:08:03.782Z,0
2019-01-17T02:09:11.826Z,0
2019-01-17T02:10:19.889Z,0
2019-01-17T02:11:27.925Z,0
2019-01-17T02:12:35.983Z,0
2019-01-17T02:13:44.032Z,0
2019-01-17T02:14:52.082Z,0
2019-01-17T02:16:00.132Z,0
2019-01-17T02:17:08.194Z,0
2019-01-17T02:18:16.242Z,0
2019-01-17T02:19:24.301Z,0
2019-01-17T02:20:32.355Z,0
2019-01-17T02:21:40.409Z,0
2019-01-17T02:22:48.447Z,0
2019-01-17T02:23:56.513Z,0
2019-01-17T02:25:04.571Z,0
2019-01-17T02:26:12.608Z,0
2019-01-17T02:27:20.645Z,0
2019-01-17T02:28:28.715Z,0
2019-01-17T02:29:36.763Z,0
2019-01-17T02:30:44.827Z,0
2019-01-17T02:31:52.871Z,0
2019-01-17T02:33:00.896Z,0
2019-01-17T02:34:08.997Z,0
2019-01-17T02:35:17.026Z,0
2019-01-17T02:36:25.086Z,0
2019-01-17T02:37:33.138Z,0
2019-01-17T02:38:41.164Z,0
2019-01-17T02:39:49.243Z,0
2019-01-17T02:40:57.291Z,0
2019-01-17T02:42:05.360Z,0
2019-01-17T02:43:13.396Z,0
2019-01-17T02:44:21.430Z,0
2019-01-17T02:45:29.497Z,0
2019-01-17T02:46:37.562Z,0
2019-01-17T02:47:45.613Z,0
2019-01-17T02:48:53.655Z,0
2019-01-17T02:50:01.713Z,0
2019-01-17T02:51:09.768Z,0
2019-01-17T02:52:17.815Z,0
2019-01-17T02:53:25.871Z,0
2019-01-17T02:54:35.765Z,0
2019-01-17T02:55:41.979Z,0
2019-01-17T02:56:49.999Z,0
2019-01-17T02:57:58.070Z,0
2019-01-17T02:59:06.137Z,0
2019-01-17T03:00:14.187Z,0
2019-01-17T03:01:22.241Z,0
2019-01-17T03:02:30.291Z,0
2019-01-17T03:03:38.331Z,0
2019-01-17T03:04:46.402Z,0
2019-01-17T03:05:54.442Z,0
2019-01-17T03:07:02.493Z,0
2019-01-17T03:08:10.546Z,0
2019-01-17T03:09:18.637Z,0
2019-01-17T03:10:26.668Z,0
2019-01-17T03:11:34.714Z,0
2019-01-17T03:12:42.758Z,0
2019-01-17T03:13:50.788Z,0
2019-01-17T03:14:58.858Z,0
2019-01-17T03:16:06.906Z,0
2019-01-17T03:17:14.959Z,0
2019-01-17T03:18:23.033Z,0
2019-01-17T03:19:31.033Z,0
2019-01-17T03:20:39.112Z,0
2019-01-17T03:21:47.168Z,0
2019-01-17T03:22:55.237Z,0
2019-01-17T03:24:03.277Z,0
2019-01-17T03:25:11.314Z,0
2019-01-17T03:26:19.382Z,0
2019-01-17T03:27:27.530Z,0
2019-01-17T03:28:35.497Z,0
2019-01-17T03:29:43.545Z,0
2019-01-17T03:30:51.617Z,0
2019-01-17T03:31:59.669Z,0
2019-01-17T03:33:07.698Z,0
2019-01-17T03:34:15.757Z,0
2019-01-17T03:35:23.790Z,0
2019-01-17T03:36:31.854Z,0
2019-01-17T03:37:39.908Z,0
2019-01-17T03:38:47.966Z,0
2019-01-17T03:39:56.007Z,0
2019-01-17T03:41:04.078Z,0
2019-01-17T03:42:12.108Z,0
2019-01-17T03:43:20.170Z,0
2019-01-17T03:44:28.320Z,0
2019-01-17T03:45:36.285Z,0
2019-01-17T03:46:44.334Z,0
2019-01-17T03:47:52.388Z,0
2019-01-17T03:49:00.435Z,0
2019-01-17T03:50:08.484Z,0
2019-01-17T03:51:16.539Z,0
2019-01-17T03:52:24.578Z,0
2019-01-17T03:53:32.638Z,0
2019-01-17T03:54:40.666Z,0
2019-01-17T03:55:48.743Z,0
2019-01-17T03:56:56.798Z,0
2019-01-17T03:58:04.855Z,0
2019-01-17T03:59:12.909Z,0
2019-01-17T04:00:20.935Z,0
2019-01-17T04:01:29.013Z,0
2019-01-17T04:02:37.068Z,0
2019-01-17T04:03:45.115Z,0
2019-01-17T04:04:53.165Z,0
2019-01-17T04:06:01.204Z,0
2019-01-17T04:07:09.272Z,0
2019-01-17T04:08:17.314Z,0
2019-01-17T04:09:25.391Z,0
2019-01-17T04:10:33.430Z,0
2019-01-17T04:11:41.465Z,0
2019-01-17T04:12:49.525Z,0
2019-01-17T04:13:57.596Z,0
2019-01-17T04:15:05.636Z,0
2019-01-17T04:16:13.693Z,0
2019-01-17T04:17:21.753Z,0
2019-01-17T04:18:29.803Z,0
2019-01-17T04:19:37.847Z,0
2019-01-17T04:20:45.897Z,0
2019-01-17T04:21:53.963Z,0
2019-01-17T04:23:02.000Z,0
2019-01-17T04:24:10.066Z,0
2019-01-17T04:25:18.109Z,0
2019-01-17T04:26:26.174Z,0
2019-01-17T04:27:34.206Z,0
2019-01-17T04:28:42.282Z,0
2019-01-17T04:29:50.329Z,0
2019-01-17T04:30:58.383Z,0
2019-01-17T04:32:06.436Z,0
2019-01-17T04:33:14.491Z,0
2019-01-17T04:34:22.535Z,0
2019-01-17T04:35:30.577Z,0
2019-01-17T04:36:38.654Z,0
2019-01-17T04:37:46.698Z,0
2019-01-17T04:38:54.748Z,0
2019-01-17T04:40:02.802Z,0
2019-01-17T04:41:10.829Z,0
2019-01-17T04:42:18.925Z,0
2019-01-17T04:43:26.971Z,0
2019-01-17T04:44:35.011Z,0
2019-01-17T04:45:43.066Z,0
2019-01-17T04:46:51.103Z,0
2019-01-17T04:47:59.194Z,0
2019-01-17T04:49:07.224Z,0
2019-01-17T04:50:15.279Z,0
2019-01-17T04:51:23.318Z,0
2019-01-17T04:52:31.359Z,0
2019-01-17T04:53:39.468Z,0
2019-01-17T04:54:47.501Z,0
2019-01-17T04:55:55.558Z,0
2019-01-17T04:57:03.584Z,0
2019-01-17T04:58:11.646Z,0
2019-01-17T04:59:19.714Z,0
2019-01-17T05:00:27.749Z,0
2019-01-17T05:01:35.805Z,0
2019-01-17T05:02:43.861Z,0
2019-01-17T05:03:51.914Z,0
2019-01-17T05:04:59.944Z,0
2019-01-17T05:06:08.018Z,0
2019-01-17T05:07:16.071Z,0
2019-01-17T05:08:24.135Z,0
2019-01-17T05:09:32.180Z,0
2019-01-17T05:10:40.224Z,0
2019-01-17T05:11:48.280Z,0
2019-01-17T05:12:56.334Z,0
2019-01-17T05:14:04.391Z,0
2019-01-17T05:15:12.436Z,0
2019-01-17T05:16:20.483Z,0
2019-01-17T05:17:28.547Z,0
2019-01-17T05:18:36.594Z,0
2019-01-17T05:19:44.648Z,0
2019-01-17T05:20:52.715Z,0
2019-01-17T05:22:00.736Z,0
2019-01-17T05:23:08.817Z,0
2019-01-17T05:24:16.861Z,0
2019-01-17T05:25:24.917Z,0
2019-01-17T05:26:32.974Z,0
2019-01-17T05:27:40.994Z,0
2019-01-17T05:28:49.080Z,0
2019-01-17T05:29:57.125Z,0
2019-01-17T05:31:05.274Z,0
2019-01-17T05:32:13.539Z,0
2019-01-17T05:33:21.270Z,0
2019-01-17T05:34:29.469Z,0
2019-01-17T05:35:37.399Z,0
2019-01-17T05:36:45.454Z,0
2019-01-17T05:37:53.529Z,0
2019-01-17T05:39:03.512Z,0
2019-01-17T05:40:09.619Z,0
2019-01-17T05:41:17.696Z,0
2019-01-17T05:42:25.701Z,0
2019-01-17T05:43:33.764Z,0
2019-01-17T05:44:41.827Z,0
2019-01-17T05:45:49.865Z,0
2019-01-17T05:46:57.941Z,0
2019-01-17T05:48:05.983Z,0
2019-01-17T05:49:14.037Z,0
2019-01-17T05:50:22.093Z,0
2019-01-17T05:51:30.145Z,0
2019-01-17T05:52:38.191Z,0
2019-01-17T05:53:46.231Z,0
2019-01-17T05:54:54.305Z,0
2019-01-17T05:56:02.339Z,0
2019-01-17T05:57:10.400Z,0
2019-01-17T05:58:18.463Z,0
2019-01-17T05:59:26.517Z,0
2019-01-17T06:00:34.562Z,0
2019-01-17T06:01:42.621Z,0
2019-01-17T06:02:50.654Z,0
2019-01-17T06:03:58.726Z,0
2019-01-17T06:05:06.777Z,0
2019-01-17T06:06:14.817Z,0
2019-01-17T06:07:22.863Z,0
2019-01-17T06:08:30.896Z,0
2019-01-17T06:09:38.982Z,0
2019-01-17T06:10:47.042Z,0
2019-01-17T06:11:55.100Z,0
2019-01-17T06:13:03.586Z,0
2019-01-17T06:14:11.680Z,0
2019-01-17T06:15:19.258Z,0
2019-01-17T06:16:27.291Z,0
2019-01-17T06:17:35.345Z,0
2019-01-17T06:18:43.416Z,0
2019-01-17T06:19:51.442Z,0
2019-01-17T06:20:59.502Z,0
2019-01-17T06:22:07.567Z,0
2019-01-17T06:23:15.607Z,0
2019-01-17T06:24:23.673Z,0
2019-01-17T06:25:31.716Z,0
2019-01-17T06:26:39.785Z,0
2019-01-17T06:27:47.835Z,0
2019-01-17T06:28:55.883Z,0
2019-01-17T06:30:03.933Z,0
2019-01-17T06:31:11.995Z,0
2019-01-17T06:32:20.045Z,0
2019-01-17T06:33:28.096Z,0
2019-01-17T06:34:36.143Z,0
2019-01-17T06:35:44.203Z,0
2019-01-17T06:36:52.241Z,0
2019-01-17T06:38:00.289Z,4
2019-01-17T06:39:08.383Z,0
2019-01-17T06:40:16.414Z,4
2019-01-17T06:41:24.463Z,0
2019-01-17T06:42:32.524Z,8
2019-01-17T06:43:40.566Z,4
2019-01-17T06:44:48.632Z,8
2019-01-17T06:45:56.657Z,8
2019-01-17T06:47:04.718Z,12
2019-01-17T06:48:12.813Z,12
2019-01-17T06:49:20.803Z,12
2019-01-17T06:50:28.892Z,16
2019-01-17T06:51:36.942Z,20
2019-01-17T06:52:45.000Z,24
2019-01-17T06:53:53.052Z,24
2019-01-17T06:55:01.079Z,32
2019-01-17T06:56:09.165Z,36
2019-01-17T06:57:17.220Z,40
2019-01-17T06:58:25.272Z,48
2019-01-17T06:59:33.326Z,52
2019-01-17T07:00:41.355Z,56
2019-01-17T07:01:49.445Z,68
2019-01-17T07:02:57.482Z,80
2019-01-17T07:04:05.539Z,92
2019-01-17T07:05:13.569Z,100
2019-01-17T07:06:21.640Z,104
2019-01-17T07:07:29.799Z,120
2019-01-17T07:08:37.762Z,156
2019-01-17T07:09:45.812Z,184
2019-01-17T07:10:53.859Z,196
2019-01-17T07:12:01.919Z,184
2019-01-17T07:13:09.954Z,168
2019-01-17T07:14:18.024Z,180
2019-01-17T07:15:26.077Z,196
2019-01-17T07:16:34.134Z,240
2019-01-17T07:17:42.171Z,268
2019-01-17T07:18:50.249Z,336
2019-01-17T07:19:58.284Z,400
2019-01-17T07:21:06.352Z,488
2019-01-17T07:22:14.406Z,520
2019-01-17T07:23:22.458Z,564
2019-01-17T07:24:30.495Z,632
2019-01-17T07:25:41.062Z,632
2019-01-17T07:26:46.604Z,652
2019-01-17T07:27:54.662Z,720
2019-01-17T07:29:02.739Z,724
2019-01-17T07:30:10.752Z,668
2019-01-17T07:31:18.843Z,644
2019-01-17T07:32:26.870Z,736
2019-01-17T07:33:34.979Z,940
2019-01-17T07:34:42.991Z,912
2019-01-17T07:35:51.073Z,768
2019-01-17T07:36:59.111Z,704
2019-01-17T07:38:07.208Z,800
2019-01-17T07:39:15.210Z,856
2019-01-17T07:40:23.266Z,932
2019-01-17T07:41:31.307Z,1040
2019-01-17T07:42:39.438Z,1064
2019-01-17T07:43:47.421Z,1104
2019-01-17T07:44:55.541Z,1164
2019-01-17T07:46:03.530Z,1164
2019-01-17T07:47:11.641Z,1284
2019-01-17T07:48:19.745Z,1416
2019-01-17T07:49:27.707Z,1484
2019-01-17T07:50:35.743Z,1408
2019-01-17T07:51:43.810Z,1452
2019-01-17T07:52:51.858Z,1560
2019-01-17T07:53:59.923Z,1580
2019-01-17T07:55:07.971Z,1428
2019-01-17T07:56:16.029Z,1440
2019-01-17T07:57:24.096Z,1628
2019-01-17T07:58:32.137Z,1804
2019-01-17T07:59:40.172Z,1832
2019-01-17T08:00:48.240Z,1956
2019-01-17T08:01:56.298Z,2148
2019-01-17T08:03:04.372Z,2232
2019-01-17T08:04:12.557Z,2240
2019-01-17T08:05:20.462Z,2304
2019-01-17T08:06:28.523Z,2260
2019-01-17T08:07:36.562Z,2176
2019-01-17T08:08:44.611Z,1976
2019-01-17T08:09:52.694Z,2044
2019-01-17T08:11:00.731Z,1992
2019-01-17T08:12:08.794Z,1912
2019-01-17T08:13:16.856Z,1880
2019-01-17T08:14:24.901Z,1672
2019-01-17T08:15:32.957Z,1532
2019-01-17T08:16:41.032Z,1392
2019-01-17T08:17:49.090Z,1436
2019-01-17T08:18:57.146Z,1640
2019-01-17T08:20:05.166Z,1840
2019-01-17T08:21:13.227Z,2284
2019-01-17T08:22:21.268Z,2752
2019-01-17T08:23:34.490Z,3148
2019-01-17T08:24:37.407Z,3344
2019-01-17T08:25:45.462Z,3392
2019-01-17T08:26:53.516Z,3320
2019-01-17T08:28:01.599Z,3272
2019-01-17T08:29:09.620Z,3344
2019-01-17T08:30:17.682Z,3424
2019-01-17T08:31:25.738Z,3268
2019-01-17T08:32:33.783Z,3056
2019-01-17T08:33:41.858Z,3236
2019-01-17T08:34:49.893Z,3424
2019-01-17T08:35:57.962Z,3300
2019-01-17T08:37:06.021Z,3536
2019-01-17T08:38:14.063Z,3952
2019-01-17T08:39:22.125Z,3796
2019-01-17T08:40:30.174Z,3872
2019-01-17T08:41:38.220Z,3628
2019-01-17T08:42:46.291Z,3304
2019-01-17T08:43:54.346Z,2940
2019-01-17T08:45:02.616Z,3096
2019-01-17T08:46:10.452Z,3392
2019-01-17T08:47:18.512Z,3884
2019-01-17T08:48:26.577Z,4176
2019-01-17T08:49:34.631Z,4836
2019-01-17T08:50:42.693Z,4740
2019-01-17T08:51:50.702Z,3848
2019-01-17T08:52:58.788Z,3172
2019-01-17T08:54:06.851Z,2996
2019-01-17T08:55:14.902Z,2812
2019-01-17T08:56:22.950Z,2860
2019-01-17T08:57:30.981Z,2716
2019-01-17T08:58:39.091Z,3216
2019-01-17T08:59:47.122Z,3744
2019-01-17T09:00:55.176Z,4132
2019-01-17T09:02:03.253Z,4144
2019-01-17T09:03:12.595Z,4000
2019-01-17T09:04:19.360Z,3920
2019-01-17T09:05:27.426Z,4052
2019-01-17T09:06:35.463Z,4164
2019-01-17T09:07:43.517Z,4112
2019-01-17T09:08:51.598Z,3892
2019-01-17T09:09:59.645Z,3932
2019-01-17T09:11:07.699Z,4112
2019-01-17T09:12:15.738Z,4112
2019-01-17T09:13:23.834Z,3924
2019-01-17T09:14:31.864Z,3980
2019-01-17T09:15:39.917Z,3964
2019-01-17T09:16:47.987Z,4048
2019-01-17T09:17:56.040Z,4028
2019-01-17T09:19:04.087Z,4116
2019-01-17T09:20:12.154Z,4368
2019-01-17T09:21:20.189Z,4324
2019-01-17T09:22:28.281Z,4476
2019-01-17T09:23:36.322Z,4440
2019-01-17T09:24:44.371Z,3784
2019-01-17T09:25:52.411Z,3680
2019-01-17T09:27:00.467Z,3688
2019-01-17T09:28:08.548Z,3644
2019-01-17T09:29:16.575Z,3684
2019-01-17T09:30:24.647Z,4204
2019-01-17T09:31:32.722Z,4776
2019-01-17T09:32:40.768Z,4688
2019-01-17T09:33:48.834Z,5140
2019-01-17T09:34:56.883Z,5524
2019-01-17T09:36:04.937Z,5864
2019-01-17T09:37:13.015Z,6224
2019-01-17T09:38:21.038Z,6296
2019-01-17T09:39:29.119Z,5624
2019-01-17T09:40:37.173Z,5016
2019-01-17T09:41:46.068Z,5044
2019-01-17T09:42:53.283Z,5324
2019-01-17T09:44:01.303Z,5056
2019-01-17T09:45:09.387Z,4920
2019-01-17T09:46:17.444Z,4728
2019-01-17T09:47:25.500Z,5212
2019-01-17T09:48:33.615Z,5680
2019-01-17T09:49:41.615Z,6048
2019-01-17T09:50:49.709Z,5748
2019-01-17T09:51:57.730Z,5248
2019-01-17T09:53:05.789Z,4560
2019-01-17T09:54:13.844Z,4336
2019-01-17T09:55:21.913Z,4320
2019-01-17T09:56:29.985Z,4288
2019-01-17T09:57:38.070Z,4232
2019-01-17T09:58:46.082Z,4692
2019-01-17T09:59:54.187Z,4184
2019-01-17T10:01:02.196Z,3964
2019-01-17T10:02:10.287Z,3216
2019-01-17T10:03:18.324Z,3100
2019-01-17T10:04:26.679Z,3388
2019-01-17T10:05:34.529Z,3224
2019-01-17T10:06:42.479Z,3288
2019-01-17T10:07:50.530Z,3580
2019-01-17T10:08:58.637Z,4208
2019-01-17T10:10:06.650Z,4040
2019-01-17T10:11:14.765Z,3884
2019-01-17T10:12:22.739Z,3868
2019-01-17T10:13:32.078Z,3764
2019-01-17T10:14:38.877Z,3736
2019-01-17T10:15:46.916Z,4072
2019-01-17T10:16:54.997Z,4324
2019-01-17T10:18:03.057Z,4400
2019-01-17T10:19:11.098Z,4192
2019-01-17T10:20:20.751Z,4188
2019-01-17T10:21:27.218Z,4536
2019-01-17T10:22:35.271Z,4536
2019-01-17T10:23:43.322Z,5076
2019-01-17T10:24:51.378Z,5548
2019-01-17T10:25:59.440Z,5272
2019-01-17T10:27:07.496Z,4900
2019-01-17T10:28:15.560Z,4364
2019-01-17T10:29:23.632Z,4704
2019-01-17T10:30:31.678Z,5140
2019-01-17T10:31:39.722Z,5236
2019-01-17T10:32:47.788Z,5724
2019-01-17T10:33:55.849Z,6028
2019-01-17T10:35:03.901Z,5976
2019-01-17T10:36:11.962Z,6156
2019-01-17T10:37:20.019Z,6324
2019-01-17T10:38:28.079Z,6480
2019-01-17T10:39:36.134Z,6256
2019-01-17T10:40:44.188Z,6260
2019-01-17T10:41:52.240Z,6472
2019-01-17T10:43:00.279Z,6332
2019-01-17T10:44:08.362Z,6292
2019-01-17T10:45:16.430Z,6076
2019-01-17T10:46:24.474Z,6008
2019-01-17T10:47:32.543Z,6612
2019-01-17T10:48:40.569Z,7012
2019-01-17T10:49:48.636Z,6912
2019-01-17T10:50:56.704Z,6712
2019-01-17T10:52:04.761Z,6608
2019-01-17T10:53:12.816Z,6792
2019-01-17T10:54:20.841Z,6932
2019-01-17T10:55:28.929Z,6792
2019-01-17T10:56:41.232Z,6356
2019-01-17T10:57:45.047Z,6284
2019-01-17T10:58:53.100Z,6372
2019-01-17T11:00:01.159Z,6532
2019-01-17T11:01:09.208Z,6584
2019-01-17T11:02:17.302Z,6416
2019-01-17T11:03:25.329Z,6144
2019-01-17T11:04:33.401Z,6268
2019-01-17T11:05:41.442Z,6172
2019-01-17T11:06:49.505Z,5956
2019-01-17T11:07:57.562Z,5760
2019-01-17T11:09:05.626Z,5720
2019-01-17T11:10:13.686Z,5948
2019-01-17T11:11:21.741Z,5972
2019-01-17T11:12:29.803Z,6104
2019-01-17T11:13:37.997Z,6448
2019-01-17T11:14:45.901Z,6576
2019-01-17T11:15:53.963Z,6440
2019-01-17T11:17:02.029Z,6508
2019-01-17T11:18:10.089Z,6136
2019-01-17T11:19:18.155Z,6036
2019-01-17T11:20:26.215Z,5876
2019-01-17T11:21:34.266Z,5596
2019-01-17T11:22:42.303Z,5432
2019-01-17T11:23:50.360Z,5740
2019-01-17T11:24:58.434Z,5976
2019-01-17T11:26:06.494Z,6256
2019-01-17T11:27:14.547Z,6452
2019-01-17T11:28:22.601Z,6676
2019-01-17T11:29:30.664Z,6880
2019-01-17T11:30:38.712Z,6776
2019-01-17T11:31:46.769Z,6844
2019-01-17T11:32:54.842Z,7148
2019-01-17T11:34:02.897Z,7340
2019-01-17T11:35:10.943Z,7580
2019-01-17T11:36:19.011Z,7688
2019-01-17T11:37:27.070Z,7704
2019-01-17T11:38:35.138Z,7624
2019-01-17T11:39:43.205Z,7496
2019-01-17T11:40:51.237Z,7392
2019-01-17T11:41:59.298Z,7140
2019-01-17T11:43:07.367Z,6760
2019-01-17T11:44:15.431Z,6252
2019-01-17T11:45:23.474Z,5648
2019-01-17T11:46:31.542Z,5092
2019-01-17T11:47:39.601Z,4760
2019-01-17T11:48:47.664Z,4700
2019-01-17T11:49:55.713Z,4988
2019-01-17T11:51:03.766Z,5140
2019-01-17T11:52:11.831Z,4852
2019-01-17T11:53:19.882Z,4844
2019-01-17T11:54:27.959Z,4840
2019-01-17T11:55:35.995Z,4384
2019-01-17T11:56:44.058Z,4104
2019-01-17T11:57:52.123Z,3824
2019-01-17T11:59:00.300Z,3712
2019-01-17T12:00:08.232Z,3556
2019-01-17T12:01:16.300Z,3416
2019-01-17T12:02:24.350Z,3276
2019-01-17T12:03:32.397Z,3204
2019-01-17T12:04:40.453Z,3160
2019-01-17T12:05:48.513Z,2844
2019-01-17T12:06:56.584Z,2524
2019-01-17T12:08:04.644Z,2392
2019-01-17T12:09:12.702Z,2300
2019-01-17T12:10:20.728Z,2372
2019-01-17T12:11:28.813Z,2508
2019-01-17T12:12:36.873Z,2628
2019-01-17T12:13:44.930Z,2668
2019-01-17T12:14:52.984Z,2696
2019-01-17T12:16:01.022Z,2856
2019-01-17T12:17:09.121Z,2952
2019-01-17T12:18:17.172Z,2972
2019-01-17T12:19:25.241Z,2904
2019-01-17T12:20:33.265Z,3020
2019-01-17T12:21:41.312Z,2992
2019-01-17T12:22:49.394Z,3004
2019-01-17T12:23:57.453Z,3020
2019-01-17T12:25:05.512Z,3152
2019-01-17T12:26:13.552Z,2896
2019-01-17T12:27:21.599Z,2740
2019-01-17T12:28:29.661Z,2816
2019-01-17T12:29:37.718Z,2796
2019-01-17T12:30:45.777Z,2660
2019-01-17T12:31:53.853Z,3008
2019-01-17T12:33:01.955Z,3100
2019-01-17T12:34:09.946Z,2988
2019-01-17T12:35:18.065Z,2904
2019-01-17T12:36:26.067Z,2692
2019-01-17T12:37:34.137Z,2724
2019-01-17T12:38:42.172Z,2608
2019-01-17T12:39:50.251Z,2664
2019-01-17T12:40:58.297Z,2616
2019-01-17T12:42:06.407Z,2636
2019-01-17T12:43:14.414Z,2752
2019-01-17T12:44:22.512Z,2716
2019-01-17T12:45:30.498Z,2640
2019-01-17T12:46:38.567Z,2716
2019-01-17T12:47:46.650Z,2584
2019-01-17T12:48:54.702Z,2904
2019-01-17T12:50:02.768Z,2924
2019-01-17T12:51:10.772Z,2772
2019-01-17T12:52:18.871Z,2624
2019-01-17T12:53:26.904Z,2444
2019-01-17T12:54:34.970Z,2660
2019-01-17T12:55:43.036Z,2756
2019-01-17T12:56:54.069Z,2716
2019-01-17T12:57:59.153Z,2756
2019-01-17T12:59:07.208Z,2796
2019-01-17T13:00:15.264Z,3064
2019-01-17T13:01:23.342Z,3140
2019-01-17T13:02:31.356Z,3216
2019-01-17T13:03:39.435Z,3344
2019-01-17T13:04:47.485Z,3512
2019-01-17T13:05:55.539Z,3496
2019-01-17T13:07:03.600Z,3316
2019-01-17T13:08:11.657Z,3264
2019-01-17T13:09:19.715Z,3300
2019-01-17T13:10:27.768Z,3136
2019-01-17T13:11:35.844Z,2688
2019-01-17T13:12:43.892Z,2164
2019-01-17T13:13:51.966Z,1940
2019-01-17T13:15:00.006Z,1776
2019-01-17T13:16:08.060Z,2088
2019-01-17T13:17:16.115Z,2504
2019-01-17T13:18:24.173Z,3152
2019-01-17T13:19:32.223Z,2832
2019-01-17T13:20:40.288Z,3456
2019-01-17T13:21:48.351Z,3356
2019-01-17T13:22:56.411Z,3072
2019-01-17T13:24:04.459Z,2800
2019-01-17T13:25:12.520Z,2812
2019-01-17T13:26:20.550Z,2540
2019-01-17T13:27:28.718Z,2660
2019-01-17T13:28:36.679Z,2764
2019-01-17T13:29:44.743Z,2420
2019-01-17T13:30:52.811Z,2408
2019-01-17T13:32:00.854Z,2584
2019-01-17T13:33:08.914Z,2608
2019-01-17T13:34:16.966Z,2532
2019-01-17T13:35:25.007Z,2780
2019-01-17T13:36:33.074Z,3028
2019-01-17T13:37:41.123Z,3260
2019-01-17T13:38:49.195Z,3372
2019-01-17T13:39:57.251Z,3296
2019-01-17T13:41:05.312Z,3376
2019-01-17T13:42:13.362Z,3356
2019-01-17T13:43:21.401Z,3156
2019-01-17T13:44:29.477Z,2952
2019-01-17T13:45:37.530Z,2780
2019-01-17T13:46:45.595Z,2756
2019-01-17T13:47:53.645Z,2880
2019-01-17T13:49:01.699Z,3024
2019-01-17T13:50:09.753Z,2988
2019-01-17T13:51:17.804Z,2880
2019-01-17T13:52:25.869Z,2852
2019-01-17T13:53:33.914Z,2720
2019-01-17T13:54:41.987Z,2688
2019-01-17T13:55:50.031Z,2688
2019-01-17T13:56:58.084Z,2680
2019-01-17T13:58:06.156Z,2892
2019-01-17T13:59:14.230Z,3108
2019-01-17T14:00:22.278Z,3024
2019-01-17T14:01:30.316Z,2736
2019-01-17T14:02:38.379Z,2720
2019-01-17T14:03:46.435Z,2732
2019-01-17T14:04:55.744Z,2780
2019-01-17T14:06:02.544Z,2480
2019-01-17T14:07:10.595Z,2068
2019-01-17T14:08:18.662Z,1696
2019-01-17T14:09:26.807Z,1652
2019-01-17T14:10:34.768Z,1812
2019-01-17T14:11:42.842Z,1640
2019-01-17T14:12:50.885Z,1356
2019-01-17T14:13:58.952Z,1160
2019-01-17T14:15:07.011Z,1132
2019-01-17T14:16:15.068Z,1076
2019-01-17T14:17:23.111Z,1140
2019-01-17T14:18:31.160Z,1272
2019-01-17T14:19:39.243Z,1432
2019-01-17T14:20:47.288Z,1856
2019-01-17T14:21:55.343Z,1856
2019-01-17T14:23:03.410Z,2020
2019-01-17T14:24:11.437Z,1644
2019-01-17T14:25:19.519Z,1736
2019-01-17T14:26:27.568Z,1604
2019-01-17T14:27:35.617Z,1528
2019-01-17T14:28:43.697Z,1452
2019-01-17T14:29:51.730Z,1348
2019-01-17T14:30:59.795Z,1168
2019-01-17T14:32:07.839Z,1292
2019-01-17T14:33:15.919Z,1408
2019-01-17T14:34:23.960Z,1380
2019-01-17T14:35:32.007Z,1296
2019-01-17T14:36:40.129Z,1420
2019-01-17T14:37:48.132Z,1408
2019-01-17T14:38:56.238Z,1284
2019-01-17T14:40:04.237Z,1076
2019-01-17T14:41:12.310Z,928
2019-01-17T14:42:20.357Z,820
2019-01-17T14:43:28.399Z,736
2019-01-17T14:44:36.464Z,652
2019-01-17T14:45:44.565Z,572
2019-01-17T14:46:52.587Z,520
2019-01-17T14:48:00.667Z,520
2019-01-17T14:49:08.696Z,708
2019-01-17T14:50:18.677Z,1556
2019-01-17T14:51:24.797Z,1660
2019-01-17T14:52:32.857Z,1512
2019-01-17T14:53:40.889Z,1368
2019-01-17T14:54:48.971Z,1700
2019-01-17T14:55:57.023Z,1520
2019-01-17T14:57:05.128Z,1568
2019-01-17T14:58:13.138Z,1532
2019-01-17T14:59:21.225Z,1740
2019-01-17T15:00:29.236Z,1816
2019-01-17T15:01:37.314Z,1588
2019-01-17T15:02:45.364Z,1336
2019-01-17T15:03:53.425Z,1320
2019-01-17T15:05:01.454Z,1296
2019-01-17T15:06:09.533Z,1120
2019-01-17T15:07:17.588Z,1084
2019-01-17T15:08:25.646Z,1044
2019-01-17T15:09:33.692Z,1032
2019-01-17T15:10:41.769Z,1036
2019-01-17T15:11:49.816Z,1064
2019-01-17T15:12:57.858Z,1076
2019-01-17T15:14:05.910Z,952
2019-01-17T15:15:13.971Z,972
2019-01-17T15:16:22.030Z,964
2019-01-17T15:17:30.093Z,948
2019-01-17T15:18:38.148Z,988
2019-01-17T15:19:46.191Z,992
2019-01-17T15:20:54.242Z,916
2019-01-17T15:22:02.317Z,864
2019-01-17T15:23:10.356Z,916
2019-01-17T15:24:18.413Z,972
2019-01-17T15:25:26.499Z,968
2019-01-17T15:26:34.538Z,924
2019-01-17T15:27:42.589Z,824
2019-01-17T15:28:50.650Z,836
2019-01-17T15:29:58.689Z,888
2019-01-17T15:31:06.745Z,808
2019-01-17T15:32:14.815Z,708
2019-01-17T15:33:22.870Z,636
2019-01-17T15:34:30.903Z,712
2019-01-17T15:35:38.961Z,724
2019-01-17T15:36:47.031Z,712
2019-01-17T15:37:55.086Z,692
2019-01-17T15:39:03.150Z,684
2019-01-17T15:40:11.169Z,640
2019-01-17T15:41:19.259Z,600
2019-01-17T15:42:27.307Z,580
2019-01-17T15:43:35.373Z,568
2019-01-17T15:44:43.427Z,532
2019-01-17T15:45:51.485Z,484
2019-01-17T15:46:59.546Z,400
2019-01-17T15:48:07.602Z,328
2019-01-17T15:49:15.645Z,304
2019-01-17T15:50:23.678Z,268